Time;durP1;ratioP1;P1;durP2;ratioP2;P2;SDS_P1;SDS_P2;PMS_P1;PMS_P2;Temp;Humidity;BMP_temperature;BMP_pressure;BME280_temperature;BME280_humidity;BME280_pressure;Samples;Min_cycle;Max_cycle;Signal;HPM_P1;HPM_P2
2023/01/09 00:01:33;;;;;;;30.20;19.12;;;;;;;9.11;64.54;99083.69;7694296;32;39960;-86
2023/01/09 00:05:49;;;;;;;27.92;17.90;;;;;;;8.86;65.53;99084.59;7689027;32;38649;-86
2023/01/09 00:10:06;;;;;;;31.75;18.27;;;;;;;8.97;65.26;99073.41;7696825;32;36983;-86
2023/01/09 00:14:23;;;;;;;22.42;11.57;;;;;;;9.15;64.87;99084.72;7695498;32;39287;-85
2023/01/09 00:18:39;;;;;;;29.63;15.68;;;;;;;8.99;65.43;99076.66;7695809;32;38606;-85
2023/01/09 00:22:55;;;;;;;21.70;13.57;;;;;;;9.15;64.99;99071.94;7707415;32;37789;-86
2023/01/09 00:27:13;;;;;;;26.65;15.23;;;;;;;9.44;63.87;99070.44;7708397;32;37165;-86
2023/01/09 00:31:29;;;;;;;26.30;15.32;;;;;;;9.47;63.37;99067.12;7709653;32;40083;-86
2023/01/09 00:35:45;;;;;;;23.35;14.63;;;;;;;9.26;64.03;99061.00;7709506;32;39952;-85
2023/01/09 00:40:01;;;;;;;25.20;13.73;;;;;;;9.43;63.58;99061.44;7711136;32;37976;-86
2023/01/09 00:44:25;;;;;;;25.05;13.48;;;;;;;9.33;63.89;99062.34;7712167;32;37152;-86
2023/01/09 00:48:43;;;;;;;22.58;14.32;;;;;;;9.39;63.80;99060.41;7699546;32;40265;-86
2023/01/09 00:53:04;;;;;;;15.30;8.70;;;;;;;9.50;63.61;99056.53;7699130;32;40116;-86
2023/01/09 00:57:20;;;;;;;23.02;11.95;;;;;;;9.57;63.48;99058.91;7698815;32;38778;-86
2023/01/09 01:01:37;;;;;;;23.05;13.70;;;;;;;9.73;63.01;99044.09;7712714;32;37228;-86
2023/01/09 01:10:28;;;;;;;24.80;12.77;;;;;;;9.93;62.15;99043.13;7711881;32;39873;-86
2023/01/09 01:14:44;;;;;;;23.20;12.35;;;;;;;9.96;61.83;99034.38;7712427;32;37660;-86
2023/01/09 01:19:00;;;;;;;18.55;11.38;;;;;;;9.82;62.35;99029.88;7698868;32;37162;-86
2023/01/09 01:23:17;;;;;;;20.58;11.75;;;;;;;9.84;62.11;99038.56;7712280;32;40006;-85
2023/01/09 01:27:33;;;;;;;21.02;10.32;;;;;;;10.15;61.06;99023.56;7712266;32;40058;-86
2023/01/09 01:31:50;;;;;;;21.48;13.20;;;;;;;10.13;60.84;99020.31;7712309;32;38739;-86
2023/01/09 01:36:08;;;;;;;21.92;12.50;;;;;;;10.17;60.96;99008.84;7712374;32;37706;-85
2023/01/09 01:40:24;;;;;;;18.85;11.32;;;;;;;9.94;61.74;98998.44;7712401;32;39886;-86
2023/01/09 01:45:06;;;;;;;19.33;9.15;;;;;;;9.92;61.54;98995.22;7712242;32;40889;-86
2023/01/09 01:49:23;;;;;;;15.43;7.87;;;;;;;9.95;60.96;98997.34;7711528;32;38713;-85
2023/01/09 01:53:54;;;;;;;15.63;8.50;;;;;;;10.21;59.80;98990.81;7711972;32;37146;-85
2023/01/09 01:58:12;;;;;;;11.63;6.00;;;;;;;10.40;58.68;98991.75;7699388;32;39130;-85
2023/01/09 02:02:30;;;;;;;11.43;5.90;;;;;;;10.45;57.14;98978.06;7698599;32;39874;-85
2023/01/09 02:06:49;;;;;;;10.35;5.55;;;;;;;10.69;57.19;98966.31;7711785;32;37864;-86
2023/01/09 02:11:06;;;;;;;11.70;4.70;;;;;;;10.73;56.05;98961.09;7698386;32;38243;-85
2023/01/09 02:15:22;;;;;;;8.95;4.30;;;;;;;10.58;56.03;98952.00;7711911;32;39287;-86
2023/01/09 02:20:10;;;;;;;8.77;4.78;;;;;;;11.06;54.02;98940.19;7711731;32;40705;-86
2023/01/09 02:24:53;;;;;;;7.82;3.90;;;;;;;11.30;52.95;98931.06;7711278;32;37648;-85
2023/01/09 02:29:28;;;;;;;9.70;3.65;;;;;;;11.32;53.08;98916.03;7699263;32;36991;-86
2023/01/09 02:34:01;;;;;;;8.38;4.00;;;;;;;11.93;51.65;98916.09;7711825;32;39527;-86
2023/01/09 02:38:31;;;;;;;11.93;4.67;;;;;;;12.05;51.48;98918.34;7711611;32;40023;-86
2023/01/09 02:42:48;;;;;;;9.38;4.20;;;;;;;12.09;51.47;98920.16;7698053;32;38288;-86
2023/01/09 02:47:06;;;;;;;8.75;4.45;;;;;;;11.42;53.24;98917.78;7698043;32;37713;-85
2023/01/09 02:51:36;;;;;;;7.72;4.32;;;;;;;11.67;51.58;98915.72;7698159;32;38328;-86
2023/01/09 02:56:28;;;;;;;8.75;4.20;;;;;;;11.73;51.88;98918.06;7698443;32;39949;-86
2023/01/09 03:00:47;;;;;;;5.95;3.37;;;;;;;12.20;51.18;98921.56;7652983;32;37691;-85
2023/01/09 03:05:10;;;;;;;6.45;3.80;;;;;;;12.11;50.66;98908.94;7711560;32;37438;-86
2023/01/09 03:09:28;;;;;;;;;;;;;;;12.51;50.53;98898.28;7711600;32;40068;-86
2023/01/09 03:13:55;;;;;;;8.60;4.12;;;;;;;12.09;52.29;98900.22;7711322;32;40856;-86
2023/01/09 03:18:13;;;;;;;7.68;4.12;;;;;;;12.46;51.99;98888.25;7697967;32;38704;-86
2023/01/09 03:22:29;;;;;;;8.50;3.97;;;;;;;11.78;54.89;98892.56;7697633;32;37843;-86
2023/01/09 03:26:45;;;;;;;6.53;3.62;;;;;;;12.26;54.25;98891.41;7710408;32;40164;-86
2023/01/09 03:31:02;;;;;;;7.10;3.62;;;;;;;11.84;55.92;98885.91;7710994;32;40794;-86
2023/01/09 03:35:18;;;;;;;13.07;6.85;;;;;;;12.21;55.23;98873.19;7710953;32;37624;-86
2023/01/09 03:39:34;;;;;;;14.85;8.30;;;;;;;11.77;56.79;98874.59;7710968;32;37124;-86
2023/01/09 03:43:50;;;;;;;16.67;9.18;;;;;;;11.47;57.43;98882.22;7710586;32;39266;-86
2023/01/09 03:48:07;;;;;;;15.43;8.85;;;;;;;11.09;59.11;98879.59;7710713;32;39958;-86
2023/01/09 03:52:23;;;;;;;16.00;9.27;;;;;;;10.95;59.66;98865.06;7710163;32;38670;-86
2023/01/09 03:56:39;;;;;;;16.83;9.38;;;;;;;10.63;60.47;98863.91;7710337;32;37202;-86
2023/01/09 04:01:00;;;;;;;18.08;8.05;;;;;;;10.50;60.71;98871.72;7710479;32;39263;-86
2023/01/09 04:05:16;;;;;;;14.20;8.07;;;;;;;10.33;60.81;98885.00;7710464;32;40281;-86
2023/01/09 04:09:33;;;;;;;14.40;8.38;;;;;;;10.42;60.84;98875.09;7710025;32;38653;-86
2023/01/09 04:13:49;;;;;;;15.85;8.98;;;;;;;10.25;61.33;98863.88;7709689;32;38011;-88
2023/01/09 04:18:05;;;;;;;14.70;8.27;;;;;;;10.18;61.63;98871.59;7713369;32;39359;-86
2023/01/09 04:22:21;;;;;;;14.63;8.38;;;;;;;10.19;61.41;98865.81;7713288;32;39971;-86
2023/01/09 04:26:38;;;;;;;15.77;9.02;;;;;;;10.00;62.25;98873.16;7712600;32;37833;-87
2023/01/09 04:30:54;;;;;;;17.45;9.45;;;;;;;10.03;62.37;98884.25;7713239;32;37906;-86
2023/01/09 04:35:10;;;;;;;16.02;8.75;;;;;;;10.18;61.86;98860.69;7713250;32;39223;-86
2023/01/09 04:39:27;;;;;;;18.12;9.82;;;;;;;10.10;62.33;98856.69;7712870;32;40164;-85
2023/01/09 04:43:43;;;;;;;19.17;9.38;;;;;;;9.95;63.24;98865.84;7712415;32;38701;-87
2023/01/09 04:47:59;;;;;;;16.30;8.70;;;;;;;9.98;63.51;98869.91;7712982;32;37281;-86
2023/01/09 04:52:15;;;;;;;13.82;8.55;;;;;;;9.88;64.22;98884.44;7713018;32;39270;-87
2023/01/09 04:56:32;;;;;;;16.73;9.05;;;;;;;9.80;64.68;98882.38;7712948;32;39748;-86
2023/01/09 05:00:48;;;;;;;15.65;9.18;;;;;;;9.80;65.00;98887.81;7698635;32;37763;-87
2023/01/09 05:05:06;;;;;;;13.82;8.15;;;;;;;9.92;64.48;98882.78;7712828;32;37157;-87
2023/01/09 05:09:26;;;;;;;15.93;8.40;;;;;;;9.65;65.28;98889.56;7712554;32;39313;-86
2023/01/09 05:13:42;;;;;;;14.27;8.02;;;;;;;9.87;65.20;98883.63;7712121;32;40601;-86
2023/01/09 05:17:58;;;;;;;18.05;9.38;;;;;;;9.77;65.68;98887.25;7712579;32;37763;-86
2023/01/09 05:22:15;;;;;;;17.35;9.13;;;;;;;9.92;65.28;98883.56;7712616;32;37909;-89
2023/01/09 05:26:31;;;;;;;17.23;9.15;;;;;;;9.96;65.10;98867.47;7712219;32;40122;-87
2023/01/09 05:30:48;;;;;;;18.52;9.15;;;;;;;10.10;64.67;98852.03;7712192;32;40025;-86
2023/01/09 05:35:04;;;;;;;19.62;9.50;;;;;;;9.88;65.28;98852.59;7712402;32;38405;-85
2023/01/09 05:39:20;;;;;;;17.77;9.57;;;;;;;9.93;65.17;98852.53;7712451;32;37164;-85
2023/01/09 05:43:37;;;;;;;15.95;9.23;;;;;;;9.71;65.37;98857.66;7710978;32;39427;-85
2023/01/09 05:47:53;;;;;;;18.15;9.30;;;;;;;9.74;65.38;98855.22;7712359;32;40017;-85
2023/01/09 05:52:09;;;;;;;18.75;10.32;;;;;;;9.76;65.19;98850.28;7712119;32;37901;-85
2023/01/09 05:56:25;;;;;;;15.77;9.15;;;;;;;9.80;65.13;98852.44;7712271;32;37413;-85
2023/01/09 06:00:42;;;;;;;16.62;10.00;;;;;;;9.71;65.36;98850.34;7712156;32;40445;-86
2023/01/09 06:04:58;;;;;;;18.52;11.05;;;;;;;9.75;64.91;98840.47;7712051;32;39777;-86
2023/01/09 06:09:14;;;;;;;18.75;10.35;;;;;;;9.47;66.00;98844.88;7711688;32;38369;-86
2023/01/09 06:13:30;;;;;;;17.95;9.95;;;;;;;9.52;66.06;98841.25;7711510;32;37153;-86
2023/01/09 06:17:47;;;;;;;17.77;10.57;;;;;;;9.42;66.11;98846.81;7711989;32;39259;-86
2023/01/09 06:22:06;;;;;;;18.77;11.45;;;;;;;9.41;66.19;98846.00;7711613;32;40759;-86
2023/01/09 06:26:23;;;;;;;18.15;10.05;;;;;;;9.55;65.77;98843.41;7711311;32;38091;-86
2023/01/09 06:30:39;;;;;;;19.77;11.55;;;;;;;9.53;65.73;98837.47;7711664;32;37184;-86
2023/01/09 06:34:56;;;;;;;18.98;10.85;;;;;;;9.54;65.93;98844.53;7711723;32;38958;-86
2023/01/09 06:39:13;;;;;;;19.40;10.48;;;;;;;9.52;65.63;98847.53;7710624;32;40676;-86
2023/01/09 06:43:29;;;;;;;20.55;11.40;;;;;;;9.40;66.10;98850.66;7711463;32;38143;-86
2023/01/09 06:47:45;;;;;;;22.87;12.45;;;;;;;9.52;65.97;98857.59;7711566;32;37424;-86
2023/01/09 06:52:06;;;;;;;19.60;11.48;;;;;;;9.43;66.24;98859.31;7710948;32;39279;-84
2023/01/09 06:56:22;;;;;;;21.42;12.48;;;;;;;9.13;67.51;98867.47;7711554;32;40078;-86
2023/01/09 07:00:38;;;;;;;22.50;12.68;;;;;;;9.35;66.81;98864.28;7711408;32;38007;-86
2023/01/09 07:04:55;;;;;;;21.80;13.23;;;;;;;9.15;67.39;98872.63;7711374;32;37150;-87
2023/01/09 07:09:12;;;;;;;20.62;11.20;;;;;;;9.24;66.94;98868.19;7710276;32;40108;-86
2023/01/09 07:13:28;;;;;;;25.27;12.35;;;;;;;8.93;67.94;98867.63;7711062;32;40664;-72
2023/01/09 07:17:44;;;;;;;19.55;11.93;;;;;;;8.37;71.27;98864.16;7711013;32;38202;-77
2023/01/09 07:26:18;;;;;;;22.08;12.98;;;;;;;9.00;67.30;98863.50;7047468;32;20077560;-86
2023/01/09 07:30:34;;;;;;;24.65;13.50;;;;;;;9.42;66.01;98863.13;7653625;32;39179;-88
2023/01/09 07:34:50;;;;;;;27.27;13.07;;;;;;;9.26;66.12;98870.63;7653885;32;40630;-87
2023/01/09 07:39:08;;;;;;;23.50;13.95;;;;;;;9.43;65.88;98862.03;7653247;32;38056;-86
2023/01/09 07:43:24;;;;;;;22.10;13.38;;;;;;;9.22;66.42;98864.94;7653867;32;37925;-85
2023/01/09 07:47:41;;;;;;;27.37;13.77;;;;;;;9.28;66.30;98861.09;7653518;32;39912;-87
2023/01/09 07:51:57;;;;;;;25.77;14.02;;;;;;;9.30;66.04;98856.19;7653564;32;40797;-85
2023/01/09 07:56:13;;;;;;;23.77;15.07;;;;;;;9.13;66.30;98853.06;7673728;32;38726;-85
2023/01/09 08:00:31;;;;;;;25.88;15.43;;;;;;;9.12;66.44;98859.59;7710484;32;37266;-85
2023/01/09 08:04:48;;;;;;;24.52;15.18;;;;;;;9.09;66.55;98865.59;7709965;32;38521;-85
2023/01/09 08:09:04;;;;;;;23.92;15.38;;;;;;;9.03;66.72;98853.97;7710088;32;39873;-84
2023/01/09 08:13:21;;;;;;;25.73;15.35;;;;;;;9.08;66.58;98847.69;7709713;32;38029;-86
2023/01/09 08:17:38;;;;;;;28.42;15.88;;;;;;;8.81;67.46;98848.97;7705100;32;37390;-85
2023/01/09 08:21:54;;;;;;;25.10;15.35;;;;;;;9.00;66.90;98841.75;7706541;32;39288;-84
2023/01/09 08:26:11;;;;;;;23.98;15.60;;;;;;;9.08;66.83;98828.66;7708277;32;40055;-85
2023/01/09 08:30:27;;;;;;;25.40;15.48;;;;;;;8.98;66.91;98837.69;7707510;32;37841;-85
2023/01/09 08:34:44;;;;;;;25.10;15.80;;;;;;;8.87;67.28;98828.81;7708536;32;37169;-85
2023/01/09 08:39:00;;;;;;;22.55;14.15;;;;;;;8.79;67.34;98838.38;7708476;32;39921;-85
2023/01/09 08:47:51;;;;;;;26.55;14.63;;;;;;;8.72;67.60;98845.22;7708173;32;37901;-85
2023/01/09 08:52:07;;;;;;;25.40;14.80;;;;;;;8.83;67.63;98855.75;7708476;32;37475;-85
2023/01/09 08:56:23;;;;;;;22.05;13.70;;;;;;;8.93;67.21;98851.31;7708754;32;39271;-86
2023/01/09 09:00:40;;;;;;;29.83;16.17;;;;;;;8.86;67.35;98846.19;7709669;32;39817;-84
2023/01/09 09:04:56;;;;;;;23.40;15.27;;;;;;;8.81;67.23;98851.69;7712627;32;38498;-86
2023/01/09 09:09:13;;;;;;;25.95;14.00;;;;;;;8.82;67.68;98845.97;7711737;32;38010;-86
2023/01/09 09:13:29;;;;;;;27.50;13.73;;;;;;;8.90;67.32;98846.44;7712416;32;39449;-85
2023/01/09 09:17:48;;;;;;;23.40;13.75;;;;;;;8.98;66.77;98832.25;7711794;32;39906;-85
2023/01/09 09:22:04;;;;;;;22.35;14.50;;;;;;;8.82;67.44;98823.41;7711391;32;37755;-86
2023/01/09 09:26:22;;;;;;;23.02;14.57;;;;;;;8.63;68.29;98821.38;7711132;32;37005;-85
2023/01/09 09:30:41;;;;;;;23.60;13.55;;;;;;;8.79;68.12;98804.94;7711063;32;38380;-87
2023/01/09 09:34:58;;;;;;;21.20;14.00;;;;;;;8.86;68.10;98805.44;7712156;32;40795;-87
2023/01/09 09:39:16;;;;;;;23.85;14.65;;;;;;;8.84;68.33;98804.91;7711390;32;37795;-84
2023/01/09 09:48:22;;;;;;;27.45;15.07;;;;;;;8.78;68.20;98790.56;7700461;32;39389;-84
2023/01/09 09:52:46;;;;;;;26.87;15.23;;;;;;;8.77;68.01;98790.84;7710706;32;39730;-85
2023/01/09 09:57:04;;;;;;;25.37;13.70;;;;;;;8.84;67.99;98772.28;7698640;32;37791;-85
2023/01/09 10:02:08;;;;;;;21.23;13.82;;;;;;;8.66;68.18;98781.97;7697346;32;39688;-85
2023/01/09 10:06:36;;;;;;;23.85;14.05;;;;;;;8.91;67.93;98780.13;7691117;32;39188;-85
2023/01/09 10:10:54;;;;;;;24.87;13.85;;;;;;;8.92;67.97;98785.28;7696804;32;40828;-84
2023/01/09 10:15:18;;;;;;;23.98;14.52;;;;;;;8.83;68.50;98779.66;7697387;32;37694;-84
2023/01/09 10:19:52;;;;;;;23.77;14.07;;;;;;;8.98;67.81;98780.59;7698005;32;37053;-85
2023/01/09 10:24:26;;;;;;;21.15;13.98;;;;;;;8.95;68.05;98782.00;7710455;32;39428;-85
2023/01/09 10:29:00;;;;;;;21.90;13.27;;;;;;;8.82;68.52;98769.88;7698141;32;39655;-86
2023/01/09 10:33:41;;;;;;;31.20;15.90;;;;;;;8.98;68.37;98765.09;7710877;32;38021;-86
2023/01/09 10:38:00;;;;;;;22.77;14.00;;;;;;;9.08;68.20;98760.66;7682455;32;37200;-86
2023/01/09 10:42:38;;;;;;;22.23;13.70;;;;;;;9.20;67.33;98758.37;7709816;32;39957;-85
2023/01/09 10:46:56;;;;;;;21.65;13.25;;;;;;;8.91;68.02;98751.03;7710365;32;39921;-87
2023/01/09 10:51:22;;;;;;;20.10;12.13;;;;;;;8.48;69.50;98756.28;7710751;32;36753;-86
2023/01/09 10:55:43;;;;;;;22.45;13.05;;;;;;;9.09;67.73;98751.41;7697391;32;37406;-87
2023/01/09 11:00:02;;;;;;;22.47;13.37;;;;;;;8.51;69.48;98739.41;7697292;32;39266;-87
2023/01/09 11:04:39;;;;;;;20.88;13.40;;;;;;;8.93;68.26;98729.81;7696149;32;39897;-87
2023/01/09 11:09:00;;;;;;;22.58;13.27;;;;;;;9.01;68.18;98723.75;7710525;32;38660;-85
2023/01/09 11:13:31;;;;;;;20.52;13.00;;;;;;;8.91;68.34;98714.88;7710516;32;37877;-84
2023/01/09 11:17:50;;;;;;;18.95;12.35;;;;;;;8.98;68.12;98710.72;7710724;32;39054;-86
2023/01/09 11:22:15;;;;;;;21.62;12.73;;;;;;;8.76;68.83;98699.53;7696719;32;38870;-86
2023/01/09 11:26:34;;;;;;;23.87;13.98;;;;;;;8.81;68.37;98692.16;7709286;32;38038;-86
2023/01/09 11:31:01;;;;;;;22.92;14.18;;;;;;;8.94;68.15;98689.84;7709112;32;38135;-86
2023/01/09 11:35:31;;;;;;;22.25;13.07;;;;;;;8.80;68.47;98689.72;7696303;32;39258;-85
2023/01/09 11:39:49;;;;;;;22.10;13.23;;;;;;;8.83;68.45;98672.84;7697078;32;40737;-85
2023/01/09 11:44:14;;;;;;;24.35;13.70;;;;;;;8.88;68.48;98672.78;7709606;32;39512;-85
2023/01/09 11:48:35;;;;;;;23.17;13.95;;;;;;;8.73;68.54;98678.38;7697323;32;37058;-86
2023/01/09 11:53:19;;;;;;;22.52;14.50;;;;;;;8.75;68.65;98681.63;7709938;32;40183;-85
2023/01/09 11:57:35;;;;;;;22.20;13.45;;;;;;;8.62;69.12;98688.53;7708336;32;40832;-86
2023/01/09 12:02:09;;;;;;;19.55;12.45;;;;;;;8.81;68.44;98680.47;7709650;32;38034;-87
2023/01/09 12:06:43;;;;;;;20.73;12.73;;;;;;;8.77;68.47;98685.66;7697005;32;37162;-87
2023/01/09 12:11:18;;;;;;;21.45;13.10;;;;;;;8.74;68.56;98680.00;7709572;32;39372;-88
2023/01/09 12:15:39;;;;;;;21.55;13.23;;;;;;;8.83;68.61;98679.09;7709294;32;41082;-87
2023/01/09 12:20:01;;;;;;;22.05;12.15;;;;;;;8.86;68.42;98671.44;7711358;32;37975;-86
2023/01/09 12:25:03;;;;;;;23.70;13.35;;;;;;;8.96;68.03;98655.84;7709385;32;37335;-87
2023/01/09 12:29:52;;;;;;;24.65;14.43;;;;;;;8.95;68.11;98665.09;7684835;32;39295;-87
2023/01/09 12:34:14;;;;;;;24.95;13.68;;;;;;;8.92;67.87;98662.97;7709461;32;39847;-80
2023/01/09 12:38:58;;;;;;;24.52;13.70;;;;;;;9.05;73.68;98668.81;7711668;32;38582;-87
2023/01/09 12:43:37;;;;;;;20.70;13.77;;;;;;;9.27;69.17;98654.69;7713076;32;37796;-86
2023/01/09 12:48:02;;;;;;;23.60;14.23;;;;;;;9.16;67.53;98648.56;7712840;32;39370;-87
2023/01/09 12:52:23;;;;;;;22.23;14.30;;;;;;;9.11;66.80;98652.16;7712605;32;40607;-86
2023/01/09 12:56:50;;;;;;;26.42;14.68;;;;;;;8.89;67.42;98632.84;7711167;32;38506;-87
2023/01/09 13:01:15;;;;;;;24.12;14.98;;;;;;;8.79;67.55;98634.53;7699387;32;37706;-86
2023/01/09 13:05:49;;;;;;;26.20;14.60;;;;;;;8.63;68.11;98636.63;7712634;32;40076;-87
2023/01/09 13:10:22;;;;;;;27.40;14.48;;;;;;;8.55;68.71;98634.50;7711621;32;39996;-87
2023/01/09 13:14:48;;;;;;;24.40;15.35;;;;;;;8.58;68.62;98639.38;7712370;32;37874;-87
2023/01/09 13:19:27;;;;;;;25.70;15.43;;;;;;;8.63;68.37;98646.69;7712478;32;38073;-87
2023/01/09 13:24:29;;;;;;;26.92;14.85;;;;;;;8.63;68.18;98635.81;7712677;32;39275;-87
2023/01/09 13:29:15;;;;;;;30.48;17.05;;;;;;;8.57;68.52;98635.06;7691696;32;40801;-87
2023/01/09 13:33:37;;;;;;;27.30;16.33;;;;;;;8.46;68.84;98623.47;7708773;32;37364;-87
2023/01/09 13:37:55;;;;;;;29.90;17.05;;;;;;;8.61;68.22;98633.38;7712698;32;36907;-87
2023/01/09 13:42:36;;;;;;;31.55;16.52;;;;;;;8.27;69.56;98660.56;7712435;32;40040;-87
2023/01/09 13:46:57;;;;;;;27.70;16.40;;;;;;;8.51;68.72;98657.13;7700784;32;39890;-87
2023/01/09 13:51:36;;;;;;;27.55;15.30;;;;;;;8.71;67.79;98667.81;7711875;32;38234;-88
2023/01/09 13:55:58;;;;;;;27.58;15.15;;;;;;;8.57;68.46;98659.50;7711829;32;36964;-87
2023/01/09 14:00:19;;;;;;;24.75;13.88;;;;;;;8.57;68.60;98662.22;7711980;32;38297;-87
2023/01/09 14:04:42;;;;;;;19.65;12.45;;;;;;;8.64;68.08;98665.41;7711917;32;39854;-86
2023/01/09 14:09:10;;;;;;;22.25;12.02;;;;;;;8.50;68.73;98669.88;7711774;32;37822;-86
2023/01/09 14:13:30;;;;;;;21.65;12.75;;;;;;;8.63;68.44;98658.34;7711855;32;37203;-86
2023/01/09 14:17:57;;;;;;;20.00;12.32;;;;;;;8.68;68.23;98665.66;7711861;32;39238;-86
2023/01/09 14:22:31;;;;;;;23.48;13.57;;;;;;;8.67;68.48;98669.44;7699356;32;39762;-87
2023/01/09 14:27:25;;;;;;;21.70;12.77;;;;;;;8.59;68.58;98651.87;7700193;32;37965;-86
2023/01/09 14:31:41;;;;;;;23.90;13.82;;;;;;;8.54;68.88;98656.56;7711428;32;37976;-89
2023/01/09 14:36:20;;;;;;;20.42;13.18;;;;;;;8.86;67.66;98661.38;7711461;32;40093;-86
2023/01/09 14:40:37;;;;;;;24.17;12.75;;;;;;;8.91;67.26;98660.53;7698450;32;40845;-87
2023/01/09 14:45:06;;;;;;;19.48;12.40;;;;;;;8.78;67.81;98664.75;7711377;32;37834;-87
2023/01/09 14:49:25;;;;;;;22.75;13.68;;;;;;;8.61;68.68;98668.69;7697965;32;37882;-86
2023/01/09 14:53:43;;;;;;;21.20;12.90;;;;;;;8.92;67.59;98670.31;7711709;32;39257;-87
2023/01/09 14:58:22;;;;;;;23.45;13.27;;;;;;;8.92;67.04;98660.25;7697300;32;39922;-86
2023/01/09 15:02:38;;;;;;;22.70;13.40;;;;;;;8.87;67.28;98657.56;7711446;32;37631;-87
2023/01/09 15:06:54;;;;;;;22.70;12.93;;;;;;;8.72;67.71;98661.25;7697666;32;37181;-87
2023/01/09 15:11:13;;;;;;;20.25;12.82;;;;;;;8.71;68.00;98656.09;7711242;32;39071;-88
2023/01/09 15:15:31;;;;;;;22.02;13.13;;;;;;;9.01;66.90;98655.78;7697554;32;38965;-87
2023/01/09 15:19:48;;;;;;;22.27;12.60;;;;;;;8.89;66.99;98660.00;7710974;32;38627;-86
2023/01/09 15:24:27;;;;;;;19.27;11.65;;;;;;;8.71;67.61;98659.66;7697265;32;36943;-88
2023/01/09 15:28:43;;;;;;;19.40;12.07;;;;;;;8.57;68.13;98659.50;7711081;32;39299;-88
2023/01/09 15:33:09;;;;;;;19.48;12.68;;;;;;;8.61;68.35;98662.47;7710822;32;39961;-87
2023/01/09 15:37:35;;;;;;;21.98;13.30;;;;;;;8.94;66.90;98651.81;7697835;32;38690;-88
2023/01/09 15:46:29;;;;;;;24.30;13.88;;;;;;;8.71;67.66;98658.81;7710791;32;39298;-87
2023/01/09 15:50:47;;;;;;;23.73;14.43;;;;;;;8.66;67.82;98662.41;7710473;32;39916;-87
2023/01/09 15:55:23;;;;;;;25.73;14.65;;;;;;;8.71;67.43;98653.38;7697124;32;37851;-87
2023/01/09 15:59:41;;;;;;;30.80;14.50;;;;;;;8.58;68.12;98660.31;7698863;32;37448;-88
2023/01/09 16:04:05;;;;;;;29.17;16.55;;;;;;;8.70;67.83;98651.78;7710399;32;39437;-87
2023/01/09 16:08:30;;;;;;;27.92;15.82;;;;;;;8.57;68.29;98645.94;7710138;32;38679;-87
2023/01/09 16:12:47;;;;;;;24.90;15.25;;;;;;;8.44;68.70;98654.75;7709953;32;38400;-88
2023/01/09 16:17:06;;;;;;;28.92;15.95;;;;;;;8.60;68.24;98642.63;7696393;32;37344;-88
2023/01/09 16:21:35;;;;;;;25.70;15.35;;;;;;;8.59;68.39;98638.28;7710068;32;38988;-86
2023/01/09 16:26:19;;;;;;;30.20;16.60;;;;;;;8.74;67.71;98628.34;7709448;32;39873;-86
2023/01/09 16:30:38;;;;;;;29.33;16.37;;;;;;;8.53;68.59;98630.47;7709753;32;37802;-88
2023/01/09 16:35:18;;;;;;;31.50;17.20;;;;;;;8.69;67.85;98620.25;7709720;32;36993;-88
2023/01/09 16:39:35;;;;;;;26.75;17.30;;;;;;;8.59;68.31;98616.56;7699058;32;39316;-87
2023/01/09 16:43:51;;;;;;;33.00;17.23;;;;;;;8.54;68.49;98621.25;7707506;32;41231;-86
2023/01/09 16:48:19;;;;;;;34.45;18.10;;;;;;;8.67;68.08;98625.19;7708708;32;37928;-87
2023/01/09 16:52:35;;;;;;;33.95;18.08;;;;;;;8.81;67.48;98626.09;7705888;32;37307;-86
2023/01/09 16:56:53;;;;;;;31.30;17.52;;;;;;;8.75;67.73;98622.63;7707741;32;40092;-87
2023/01/09 17:01:12;;;;;;;34.13;18.65;;;;;;;8.73;67.65;98632.19;7707822;32;40846;-85
2023/01/09 17:05:28;;;;;;;30.67;17.08;;;;;;;8.69;67.81;98625.69;7708789;32;38499;-87
2023/01/09 17:09:45;;;;;;;27.17;16.73;;;;;;;8.62;67.97;98616.00;7708286;32;37236;-86
2023/01/09 17:14:02;;;;;;;28.80;16.87;;;;;;;8.82;67.42;98619.59;7708164;32;39991;-87
2023/01/09 17:18:21;;;;;;;32.45;17.37;;;;;;;8.93;67.02;98607.47;7707049;32;40854;-87
2023/01/09 17:22:37;;;;;;;27.92;15.57;;;;;;;8.54;68.31;98611.19;7710543;32;37601;-85
2023/01/09 17:31:29;;;;;;;23.80;13.48;;;;;;;8.62;68.31;98602.41;7699156;32;39282;-87
2023/01/09 17:35:46;;;;;;;24.75;14.80;;;;;;;8.80;67.61;98597.31;7712189;32;39782;-86
2023/01/09 17:40:18;;;;;;;24.02;14.02;;;;;;;8.71;67.69;98588.19;7698235;32;38501;-87
2023/01/09 17:44:35;;;;;;;24.00;14.02;;;;;;;8.79;67.61;98593.78;7711936;32;38021;-85
2023/01/09 17:48:52;;;;;;;21.85;13.40;;;;;;;8.94;67.03;98592.81;7698146;32;39387;-85
2023/01/09 17:53:08;;;;;;;23.10;13.48;;;;;;;8.75;67.54;98594.66;7711152;32;40752;-87
2023/01/09 17:57:26;;;;;;;24.08;13.98;;;;;;;8.91;67.19;98590.66;7711946;32;39071;-87
2023/01/09 18:01:43;;;;;;;20.20;12.70;;;;;;;8.76;67.67;98591.66;7697633;32;37243;-87
2023/01/09 18:06:00;;;;;;;20.25;12.30;;;;;;;8.78;67.59;98588.66;7711925;32;38837;-86
2023/01/09 18:10:19;;;;;;;21.15;11.52;;;;;;;8.80;67.60;98587.25;7703519;32;39606;-86
2023/01/09 18:14:40;;;;;;;20.33;11.98;;;;;;;8.77;67.53;98587.84;7711169;32;37797;-85
2023/01/09 18:18:57;;;;;;;17.20;11.10;;;;;;;8.96;66.95;98593.31;7709168;32;37045;-85
2023/01/09 18:23:14;;;;;;;19.08;11.12;;;;;;;8.81;67.50;98585.34;7710341;32;40019;-85
2023/01/09 18:27:30;;;;;;;18.37;12.00;;;;;;;8.91;67.12;98585.22;7711188;32;40869;-84
2023/01/09 18:31:47;;;;;;;20.35;12.25;;;;;;;8.88;66.94;98577.66;7709299;32;37840;-84
2023/01/09 18:36:08;;;;;;;21.15;12.20;;;;;;;8.95;66.77;98578.13;7710483;32;37321;-87
2023/01/09 18:40:24;;;;;;;19.08;11.55;;;;;;;8.90;67.08;98580.06;7695330;32;40136;-85
2023/01/09 18:44:41;;;;;;;18.55;11.57;;;;;;;9.05;66.28;98570.94;7695838;32;40093;-86
2023/01/09 18:49:02;;;;;;;19.52;11.80;;;;;;;8.95;66.65;98567.25;7710037;32;38678;-85
2023/01/09 18:53:18;;;;;;;18.08;11.05;;;;;;;8.91;67.04;98566.19;7710909;32;37770;-86
2023/01/09 18:57:34;;;;;;;17.62;11.40;;;;;;;8.99;66.78;98551.16;7711169;32;39185;-85
2023/01/09 19:01:50;;;;;;;20.17;12.07;;;;;;;8.90;66.98;98553.72;7711142;32;40052;-86
2023/01/09 19:06:07;;;;;;;20.40;12.18;;;;;;;8.77;67.64;98554.41;7710935;32;37901;-85
2023/01/09 19:10:23;;;;;;;21.40;11.98;;;;;;;8.81;67.23;98547.28;7710800;32;37312;-86
2023/01/09 19:14:39;;;;;;;22.92;12.60;;;;;;;8.96;66.97;98546.31;7710929;32;39995;-85
2023/01/09 19:18:57;;;;;;;20.52;12.40;;;;;;;8.91;67.06;98549.88;7710869;32;39833;-85
2023/01/09 19:23:13;;;;;;;19.27;12.30;;;;;;;8.87;67.42;98543.44;7696759;32;37905;-86
2023/01/09 19:27:29;;;;;;;22.17;12.30;;;;;;;8.89;67.28;98540.41;7710819;32;37150;-85
2023/01/09 19:31:47;;;;;;;18.20;10.60;;;;;;;8.65;68.33;98542.03;7704221;32;39339;-86
2023/01/09 19:36:04;;;;;;;19.67;11.00;;;;;;;8.76;68.11;98531.88;7684354;32;39861;-86
2023/01/09 19:40:20;;;;;;;20.92;11.12;;;;;;;8.97;67.12;98529.72;7703463;32;37958;-85
2023/01/09 19:44:36;;;;;;;20.80;11.48;;;;;;;8.83;67.47;98526.91;7695628;32;37868;-85
2023/01/09 19:48:53;;;;;;;16.98;10.05;;;;;;;8.77;67.45;98527.25;7705067;32;39060;-87
2023/01/09 19:53:09;;;;;;;16.45;9.55;;;;;;;8.82;67.68;98527.19;7696979;32;40860;-85
2023/01/09 19:57:25;;;;;;;14.52;8.95;;;;;;;8.67;68.09;98520.03;7697532;32;38678;-86
2023/01/09 20:01:42;;;;;;;15.35;9.13;;;;;;;8.69;67.92;98519.72;7670501;32;37101;-86
2023/01/09 20:06:06;;;;;;;12.82;8.55;;;;;;;8.78;67.75;98518.81;7683842;32;38927;-85
2023/01/09 20:10:22;;;;;;;15.30;8.80;;;;;;;8.80;67.85;98516.59;7689685;32;38961;-87
2023/01/09 20:14:39;;;;;;;14.27;8.48;;;;;;;8.62;68.21;98512.75;7702671;32;37766;-87
2023/01/09 20:19:02;;;;;;;13.82;7.57;;;;;;;8.91;67.29;98517.28;7683568;32;37230;-85
2023/01/09 20:23:22;;;;;;;11.65;7.12;;;;;;;9.03;66.98;98512.22;7694374;32;39021;-86
2023/01/09 20:27:38;;;;;;;12.13;7.53;;;;;;;8.89;67.42;98514.03;7709915;32;39992;-87
2023/01/09 20:31:54;;;;;;;10.65;7.03;;;;;;;8.84;67.76;98514.09;7709607;32;37735;-86
2023/01/09 20:36:11;;;;;;;10.80;7.03;;;;;;;8.84;67.73;98511.38;7695973;32;37926;-85
2023/01/09 20:40:27;;;;;;;16.70;8.93;;;;;;;8.92;67.48;98508.03;7696090;32;40163;-86
2023/01/09 20:44:43;;;;;;;12.77;7.40;;;;;;;8.89;67.63;98508.59;7690170;32;39881;-87